Terminal Aerodrome Forecast
Issued by NWS

Home | Current Version | Previous Version | Text Only | Print | Product List | Glossary Off
Versions: 1 2 3 4 5 6 7 8 9 10 11 12 13 14 15 16 17 18 19

000
FTUS42 KMHX 231120
TAFISO
TAF
KISO 231120Z 2312/2412 09009KT P6SM BKN120
     FM231700 11015G24KT P6SM VCSH OVC110
     FM232300 11015KT 4SM RA OVC035
     FM240500 10013KT 4SM RA OVC015
     FM240900 10014KT 2SM +RA OVC009
      AMD LTD TO CLD VIS AND WIND=

USA.gov is the U.S. government's official web portal to all federal, state and local government web resources and services.